createdAt,value
2023-03-07T00:00:16.502Z,3.90
2023-03-07T00:02:45.848Z,3.90
2023-03-07T00:05:15.284Z,3.83
2023-03-07T00:07:43.628Z,3.86
2023-03-07T00:10:13.457Z,3.83
2023-03-07T00:12:43.168Z,3.94
2023-03-07T00:15:12.477Z,3.94
2023-03-07T00:17:41.270Z,3.93
2023-03-07T00:20:14.928Z,3.94
2023-03-07T00:22:44.482Z,3.94
2023-03-07T00:25:12.898Z,3.92
2023-03-07T00:27:42.133Z,3.95
2023-03-07T00:30:13.470Z,3.95
2023-03-07T00:32:41.828Z,3.93
2023-03-07T00:35:11.234Z,3.90
2023-03-07T00:37:41.032Z,3.93
2023-03-07T00:40:11.966Z,3.94
2023-03-07T00:42:40.851Z,3.94
2023-03-07T00:45:10.893Z,3.95
2023-03-07T00:47:41.609Z,3.94
2023-03-07T00:50:11.472Z,3.95
2023-03-07T00:52:39.902Z,3.83
2023-03-07T00:55:11.081Z,3.93
2023-03-07T00:57:40.306Z,3.80
2023-03-07T01:00:12.377Z,3.93
2023-03-07T01:02:42.489Z,3.93
2023-03-07T01:05:11.078Z,3.95
2023-03-07T01:07:40.375Z,3.93
2023-03-07T01:10:09.999Z,3.94
2023-03-07T01:12:39.074Z,3.95
2023-03-07T01:15:08.741Z,3.96
2023-03-07T01:17:43.354Z,3.98
2023-03-07T01:20:13.120Z,3.90
2023-03-07T01:22:42.818Z,3.90
2023-03-07T01:25:11.966Z,3.84
2023-03-07T01:27:41.942Z,3.78
2023-03-07T01:30:12.301Z,3.76
2023-03-07T01:32:41.193Z,3.73
2023-03-07T01:35:11.380Z,3.72
2023-03-07T01:37:40.662Z,3.51
2023-03-07T01:40:13.221Z,3.72
2023-03-07T01:42:42.040Z,3.70
2023-03-07T01:45:44.173Z,3.67
2023-03-07T01:48:12.856Z,3.71
2023-03-07T01:50:44.513Z,3.70
2023-03-07T01:53:13.060Z,3.68
2023-03-07T01:55:42.065Z,3.70
2023-03-07T01:58:17.394Z,3.69
2023-03-07T02:00:48.508Z,3.60
2023-03-07T02:03:23.304Z,3.52
2023-03-07T02:05:56.441Z,3.46
2023-03-07T02:08:27.503Z,3.52
2023-03-07T02:10:56.423Z,3.51
2023-03-07T02:13:24.791Z,3.46
2023-03-07T02:15:54.029Z,3.56
2023-03-07T02:18:28.382Z,3.48
2023-03-07T02:21:03.754Z,3.55
2023-03-07T02:23:43.656Z,3.54
2023-03-07T02:26:18.163Z,3.52
2023-03-07T02:28:49.701Z,3.47
2023-03-07T02:31:19.905Z,3.57
2023-03-07T02:33:49.710Z,3.58
2023-03-07T02:36:24.859Z,3.56
2023-03-07T02:39:06.811Z,3.55
2023-03-07T02:41:39.641Z,3.51
2023-03-07T02:44:23.782Z,3.52
2023-03-07T02:46:52.506Z,3.35
2023-03-07T02:49:24.110Z,3.53
2023-03-07T02:51:58.063Z,3.44
2023-03-07T02:54:26.461Z,3.51
2023-03-07T02:56:55.723Z,3.52
2023-03-07T02:59:25.524Z,3.17
2023-03-07T03:01:55.163Z,3.37
2023-03-07T03:04:23.802Z,3.35
2023-03-07T03:06:53.235Z,3.32
2023-03-07T03:09:21.709Z,3.35
2023-03-07T03:11:51.064Z,3.28
2023-03-07T03:14:22.500Z,3.35
2023-03-07T03:16:54.894Z,3.28
2023-03-07T03:19:23.862Z,3.29
2023-03-07T03:21:52.269Z,3.22
2023-03-07T03:24:21.739Z,3.24
2023-03-07T03:26:50.922Z,3.25
2023-03-07T03:29:23.230Z,3.20
2023-03-07T03:31:52.224Z,3.22
2023-03-07T03:34:23.187Z,3.22
2023-03-07T03:36:53.350Z,3.24
2023-03-07T03:39:22.847Z,3.22
2023-03-07T03:41:57.044Z,3.17
2023-03-07T03:44:25.874Z,3.14
2023-03-07T03:46:56.188Z,3.10
2023-03-07T03:49:27.326Z,3.12
2023-03-07T03:51:56.678Z,3.13
2023-03-07T03:54:25.534Z,3.06
2023-03-07T03:56:54.900Z,3.08
2023-03-07T03:59:23.632Z,3.12
2023-03-07T04:01:55.559Z,3.11
2023-03-07T04:04:23.933Z,3.11
2023-03-07T04:07:12.434Z,3.03
2023-03-07T04:09:41.389Z,3.06
2023-03-07T04:12:10.176Z,3.08
2023-03-07T04:14:39.162Z,3.07
2023-03-07T04:17:07.941Z,3.09
2023-03-07T04:19:36.342Z,3.04
2023-03-07T04:22:05.137Z,3.07
2023-03-07T04:24:37.246Z,3.08
2023-03-07T04:27:06.463Z,3.05
2023-03-07T04:29:37.614Z,3.03
2023-03-07T04:32:15.112Z,3.02
2023-03-07T04:34:44.243Z,2.96
2023-03-07T04:37:13.260Z,2.97
2023-03-07T04:39:42.926Z,2.89
2023-03-07T04:42:12.762Z,2.88
2023-03-07T04:44:41.107Z,2.85
2023-03-07T04:47:10.436Z,2.84
2023-03-07T04:49:39.811Z,2.82
2023-03-07T04:52:10.146Z,2.80
2023-03-07T04:54:38.686Z,2.74
2023-03-07T04:57:09.389Z,2.74
2023-03-07T04:59:39.538Z,2.68
2023-03-07T05:02:12.945Z,2.65
2023-03-07T05:04:42.454Z,2.58
2023-03-07T05:07:12.541Z,2.65
2023-03-07T05:09:41.334Z,2.66
2023-03-07T05:12:11.823Z,2.67
2023-03-07T05:14:40.655Z,2.67
2023-03-07T05:17:09.578Z,2.62
2023-03-07T05:19:38.559Z,2.56
2023-03-07T05:22:07.599Z,2.65
2023-03-07T05:24:36.656Z,2.70
2023-03-07T05:27:07.099Z,2.68
2023-03-07T05:29:36.786Z,2.64
2023-03-07T05:32:06.657Z,2.65
2023-03-07T05:34:35.220Z,2.64
2023-03-07T05:37:03.761Z,2.67
2023-03-07T05:39:32.193Z,2.65
2023-03-07T05:42:00.869Z,2.64
2023-03-07T05:44:31.280Z,2.69
2023-03-07T05:47:02.455Z,2.69
2023-03-07T05:49:32.044Z,2.68
2023-03-07T05:52:00.533Z,2.53
2023-03-07T05:54:29.352Z,2.46
2023-03-07T05:56:58.064Z,2.61
2023-03-07T05:59:27.518Z,2.64
2023-03-07T06:01:56.062Z,2.66
2023-03-07T06:04:27.481Z,2.61
2023-03-07T06:06:55.947Z,2.66
2023-03-07T06:09:25.909Z,2.66
2023-03-07T06:11:56.397Z,2.73
2023-03-07T06:14:26.194Z,2.76
2023-03-07T06:16:54.877Z,2.78
2023-03-07T06:19:23.478Z,2.83
2023-03-07T06:21:55.093Z,2.82
2023-03-07T06:24:24.014Z,2.83
2023-03-07T06:26:53.169Z,2.86
2023-03-07T06:29:24.705Z,2.82
2023-03-07T06:31:53.322Z,2.91
2023-03-07T06:34:22.877Z,2.96
2023-03-07T06:36:52.029Z,2.97
2023-03-07T06:39:22.770Z,3.07
2023-03-07T06:41:54.624Z,3.10
2023-03-07T06:44:24.976Z,3.14
2023-03-07T06:46:53.784Z,3.19
2023-03-07T06:49:24.730Z,3.22
2023-03-07T06:51:53.450Z,3.28
2023-03-07T06:54:24.487Z,3.32
2023-03-07T06:56:53.274Z,3.34
2023-03-07T06:59:24.517Z,3.30
2023-03-07T07:01:53.089Z,3.38
2023-03-07T07:04:23.434Z,3.58
2023-03-07T07:06:53.354Z,3.58
2023-03-07T07:09:21.868Z,3.56
2023-03-07T07:11:52.170Z,3.58
2023-03-07T07:14:21.965Z,3.54
2023-03-07T07:16:51.227Z,3.67
2023-03-07T07:19:20.469Z,3.67
2023-03-07T07:21:49.628Z,3.71
2023-03-07T07:24:18.813Z,3.79
2023-03-07T07:26:47.872Z,3.84
2023-03-07T07:29:17.684Z,3.87
2023-03-07T07:31:49.637Z,3.86
2023-03-07T07:34:20.414Z,3.88
2023-03-07T07:36:49.380Z,3.92
2023-03-07T07:39:18.692Z,4.04
2023-03-07T07:41:48.870Z,4.11
2023-03-07T07:44:20.270Z,4.05
2023-03-07T07:46:56.135Z,4.13
2023-03-07T07:49:24.779Z,4.24
2023-03-07T07:51:53.643Z,4.21
2023-03-07T07:54:22.176Z,4.10
2023-03-07T07:56:51.805Z,4.19
2023-03-07T07:59:22.874Z,4.12
2023-03-07T08:01:52.315Z,4.11
2023-03-07T08:04:21.308Z,4.22
2023-03-07T08:06:50.405Z,4.25
2023-03-07T08:09:19.351Z,4.35
2023-03-07T08:11:48.480Z,4.37
2023-03-07T08:14:16.846Z,4.47
2023-03-07T08:16:46.929Z,4.51
2023-03-07T08:19:15.266Z,4.57
2023-03-07T08:21:43.957Z,4.54
2023-03-07T08:24:12.398Z,4.61
2023-03-07T08:26:41.681Z,4.69
2023-03-07T08:29:10.192Z,4.74
2023-03-07T08:31:39.410Z,4.80
2023-03-07T08:34:09.120Z,4.87
2023-03-07T08:36:38.502Z,4.94
2023-03-07T08:39:07.723Z,5.03
2023-03-07T08:41:36.963Z,5.12
2023-03-07T08:44:05.894Z,5.15
2023-03-07T08:46:34.228Z,5.12
2023-03-07T08:49:03.627Z,5.14
2023-03-07T08:51:33.298Z,5.20
2023-03-07T08:54:02.121Z,5.32
2023-03-07T08:56:31.271Z,5.40
2023-03-07T08:58:59.654Z,5.51
2023-03-07T09:01:28.788Z,5.54
2023-03-07T09:03:57.154Z,5.36
2023-03-07T09:06:27.105Z,5.61
2023-03-07T09:08:56.790Z,5.79
2023-03-07T09:11:26.980Z,5.86
2023-03-07T09:13:55.318Z,5.71
2023-03-07T09:16:25.724Z,5.67
2023-03-07T09:18:54.050Z,5.78
2023-03-07T09:21:23.852Z,5.81
2023-03-07T09:23:52.185Z,5.91
2023-03-07T09:26:23.473Z,5.91
2023-03-07T09:28:52.266Z,6.01
2023-03-07T09:31:21.078Z,6.16
2023-03-07T09:33:50.171Z,6.30
2023-03-07T09:36:20.734Z,6.32
2023-03-07T09:38:49.541Z,6.28
2023-03-07T09:41:40.046Z,6.82
2023-03-07T09:44:19.465Z,7.22
2023-03-07T09:47:25.213Z,7.59
2023-03-07T09:49:56.424Z,7.85
2023-03-07T09:52:28.966Z,8.14
2023-03-07T09:55:00.174Z,8.13
2023-03-07T09:57:33.066Z,7.94
2023-03-07T10:00:06.185Z,8.05
2023-03-07T10:02:47.518Z,8.34
2023-03-07T10:05:29.280Z,8.38
2023-03-07T10:07:59.603Z,8.32
2023-03-07T10:10:35.775Z,8.19
2023-03-07T10:13:21.406Z,8.16
2023-03-07T10:15:55.111Z,8.05
2023-03-07T10:18:45.850Z,7.81
2023-03-07T10:21:24.254Z,7.71
2023-03-07T10:24:24.656Z,7.67
2023-03-07T10:27:00.604Z,7.56
2023-03-07T10:29:39.290Z,7.54
2023-03-07T10:32:19.903Z,7.61
2023-03-07T10:34:50.526Z,7.97
2023-03-07T10:37:20.524Z,8.13
2023-03-07T10:39:53.409Z,8.08
2023-03-07T10:42:23.899Z,8.14
2023-03-07T10:44:54.249Z,8.17
2023-03-07T10:47:25.668Z,8.34
2023-03-07T10:49:58.977Z,8.90
2023-03-07T10:52:34.986Z,9.42
2023-03-07T10:55:32.792Z,9.68
2023-03-07T10:58:21.291Z,9.60
2023-03-07T11:01:02.500Z,9.71
2023-03-07T11:03:51.370Z,9.93
2023-03-07T11:06:30.154Z,9.53
2023-03-07T11:09:10.414Z,10.30
2023-03-07T11:11:39.548Z,10.86
2023-03-07T11:14:09.119Z,10.86
2023-03-07T11:16:44.791Z,11.10
2023-03-07T11:19:31.895Z,11.38
2023-03-07T11:22:04.828Z,11.74
2023-03-07T11:24:38.425Z,12.21
2023-03-07T11:27:09.051Z,11.98
2023-03-07T11:29:37.849Z,11.65
2023-03-07T11:32:15.006Z,11.32
2023-03-07T11:34:51.800Z,11.33
2023-03-07T11:37:28.867Z,11.08
2023-03-07T11:40:13.386Z,11.58
2023-03-07T11:42:48.571Z,12.20
2023-03-07T11:45:32.541Z,12.50
2023-03-07T11:48:14.289Z,12.21
2023-03-07T11:50:51.435Z,12.41
2023-03-07T11:53:54.333Z,12.35
2023-03-07T11:56:28.101Z,12.11
2023-03-07T11:59:38.984Z,11.91
2023-03-07T12:02:24.186Z,12.22
2023-03-07T12:05:13.580Z,12.65
2023-03-07T12:07:59.986Z,12.61
2023-03-07T12:10:35.646Z,12.81
2023-03-07T12:13:15.906Z,13.06
2023-03-07T12:15:51.531Z,13.33
2023-03-07T12:18:33.650Z,13.39
2023-03-07T12:21:20.947Z,13.08
2023-03-07T12:23:54.879Z,13.09
2023-03-07T12:26:30.438Z,13.28
2023-03-07T12:29:04.320Z,13.55
2023-03-07T12:31:37.751Z,13.46
2023-03-07T12:34:13.599Z,13.68
2023-03-07T12:36:48.465Z,13.77
2023-03-07T12:39:20.900Z,13.63
2023-03-07T12:42:02.984Z,13.71
2023-03-07T12:44:36.882Z,13.64
2023-03-07T12:47:16.300Z,13.32
2023-03-07T12:49:55.469Z,13.42
2023-03-07T12:52:37.981Z,13.58
2023-03-07T12:55:17.874Z,13.52
2023-03-07T12:57:56.997Z,13.69
2023-03-07T13:00:27.212Z,13.76
2023-03-07T13:03:01.695Z,13.76
2023-03-07T13:05:33.227Z,13.70
2023-03-07T13:08:04.297Z,13.65
2023-03-07T13:10:34.422Z,13.37
2023-03-07T13:13:03.281Z,13.46
2023-03-07T13:16:03.970Z,13.42
2023-03-07T13:18:33.781Z,12.88
2023-03-07T13:21:13.185Z,12.78
2023-03-07T13:23:42.964Z,12.83
2023-03-07T13:26:14.466Z,12.70
2023-03-07T13:28:46.460Z,12.90
2023-03-07T13:31:47.483Z,12.43
2023-03-07T13:34:47.418Z,12.35
2023-03-07T13:37:57.820Z,11.98
2023-03-07T13:40:58.823Z,12.11
2023-03-07T13:44:00.536Z,12.43
2023-03-07T13:46:47.949Z,12.52
2023-03-07T13:49:37.344Z,12.69
2023-03-07T13:52:31.486Z,12.85
2023-03-07T13:55:01.510Z,13.01
2023-03-07T13:57:39.122Z,12.89
2023-03-07T14:00:24.602Z,12.58
2023-03-07T14:02:55.376Z,12.52
2023-03-07T14:05:24.065Z,12.42
2023-03-07T14:07:54.684Z,12.44
2023-03-07T14:10:27.869Z,12.40
2023-03-07T14:13:12.686Z,12.41
2023-03-07T14:15:50.184Z,12.32
2023-03-07T14:18:30.132Z,12.32
2023-03-07T14:21:08.204Z,12.46
2023-03-07T14:23:57.220Z,12.66
2023-03-07T14:26:28.546Z,12.71
2023-03-07T14:29:00.266Z,12.98
2023-03-07T14:31:38.006Z,12.84
2023-03-07T14:34:17.355Z,12.72
2023-03-07T14:36:57.077Z,12.84
2023-03-07T14:39:28.234Z,12.86
2023-03-07T14:42:08.482Z,12.90
2023-03-07T14:44:57.636Z,12.93
2023-03-07T14:47:44.140Z,12.73
2023-03-07T14:50:17.333Z,12.67
2023-03-07T14:52:48.621Z,12.39
2023-03-07T14:55:20.393Z,12.25
2023-03-07T14:57:54.320Z,12.19
2023-03-07T15:00:26.326Z,12.13
2023-03-07T15:02:59.085Z,11.87
2023-03-07T15:05:30.516Z,11.42
2023-03-07T15:08:00.211Z,11.36
2023-03-07T15:10:34.125Z,11.18
2023-03-07T15:13:09.276Z,11.07
2023-03-07T15:15:43.396Z,10.95
2023-03-07T15:18:22.504Z,10.80
2023-03-07T15:20:53.318Z,10.71
2023-03-07T15:23:24.896Z,10.63
2023-03-07T15:25:56.753Z,10.49
2023-03-07T15:28:32.206Z,10.30
2023-03-07T15:31:00.711Z,10.02
2023-03-07T15:33:35.309Z,9.99
2023-03-07T15:36:09.749Z,10.16
2023-03-07T15:38:39.954Z,10.25
2023-03-07T15:41:27.612Z,10.33
2023-03-07T15:44:08.472Z,10.26
2023-03-07T15:46:40.069Z,10.00
2023-03-07T15:49:20.404Z,9.90
2023-03-07T15:51:52.852Z,9.95
2023-03-07T15:54:32.313Z,10.17
2023-03-07T15:57:04.782Z,10.42
2023-03-07T15:59:38.736Z,10.52
2023-03-07T16:02:26.403Z,10.66
2023-03-07T16:04:57.512Z,10.62
2023-03-07T16:07:26.010Z,10.40
2023-03-07T16:09:54.399Z,10.25
2023-03-07T16:12:24.771Z,10.15
2023-03-07T16:14:55.252Z,10.05
2023-03-07T16:17:29.131Z,10.01
2023-03-07T16:19:58.956Z,9.83
2023-03-07T16:22:27.268Z,9.74
2023-03-07T16:24:55.598Z,9.71
2023-03-07T16:27:25.514Z,9.71
2023-03-07T16:29:55.036Z,9.73
2023-03-07T16:32:23.836Z,9.78
2023-03-07T16:34:53.430Z,9.88
2023-03-07T16:37:23.534Z,9.78
2023-03-07T16:39:51.862Z,9.79
2023-03-07T16:42:24.131Z,9.76
2023-03-07T16:44:52.813Z,9.76
2023-03-07T16:47:21.562Z,9.67
2023-03-07T16:49:52.167Z,9.45
2023-03-07T16:52:23.531Z,9.30
2023-03-07T16:54:54.191Z,9.21
2023-03-07T16:57:23.905Z,9.11
2023-03-07T16:59:52.302Z,8.98
2023-03-07T17:02:23.104Z,8.78
2023-03-07T17:04:51.430Z,8.84
2023-03-07T17:07:23.912Z,8.74
2023-03-07T17:09:53.757Z,8.65
2023-03-07T17:12:24.927Z,8.50
2023-03-07T17:14:53.528Z,8.41
2023-03-07T17:17:28.987Z,8.32
2023-03-07T17:19:57.354Z,8.30
2023-03-07T17:22:26.162Z,8.23
2023-03-07T17:24:55.810Z,8.14
2023-03-07T17:27:25.140Z,8.13
2023-03-07T17:29:55.179Z,8.11
2023-03-07T17:32:23.710Z,8.08
2023-03-07T17:34:52.801Z,8.02
2023-03-07T17:37:21.771Z,7.96
2023-03-07T17:39:50.521Z,7.92
2023-03-07T17:42:20.656Z,7.84
2023-03-07T17:44:49.028Z,7.73
2023-03-07T17:47:17.662Z,7.68
2023-03-07T17:49:46.896Z,7.57
2023-03-07T17:52:15.289Z,7.64
2023-03-07T17:54:45.876Z,7.62
2023-03-07T17:57:14.237Z,7.37
2023-03-07T17:59:45.261Z,7.55
2023-03-07T18:02:15.494Z,7.60
2023-03-07T18:04:44.228Z,7.59
2023-03-07T18:07:14.213Z,7.49
2023-03-07T18:09:42.574Z,7.43
2023-03-07T18:12:11.549Z,7.36
2023-03-07T18:14:39.998Z,7.28
2023-03-07T18:17:10.112Z,7.35
2023-03-07T18:19:40.059Z,7.22
2023-03-07T18:22:09.119Z,7.19
2023-03-07T18:24:37.544Z,7.06
2023-03-07T18:27:09.329Z,7.02
2023-03-07T18:29:38.662Z,6.94
2023-03-07T18:32:07.387Z,6.85
2023-03-07T18:34:38.088Z,6.70
2023-03-07T18:37:08.179Z,6.73
2023-03-07T18:39:37.296Z,6.67
2023-03-07T18:42:07.145Z,6.58
2023-03-07T18:44:35.558Z,6.54
2023-03-07T18:47:04.868Z,6.49
2023-03-07T18:49:33.356Z,6.49
2023-03-07T18:52:04.797Z,6.35
2023-03-07T18:54:34.288Z,6.39
2023-03-07T18:57:03.242Z,6.31
2023-03-07T18:59:31.551Z,6.47
2023-03-07T19:02:03.420Z,6.43
2023-03-07T19:04:31.800Z,6.36
2023-03-07T19:07:01.125Z,6.33
2023-03-07T19:09:32.587Z,6.26
2023-03-07T19:12:00.905Z,6.14
2023-03-07T19:14:30.257Z,6.15
2023-03-07T19:16:58.925Z,6.13
2023-03-07T19:19:27.297Z,6.06
2023-03-07T19:21:56.372Z,6.15
2023-03-07T19:24:24.752Z,6.15
2023-03-07T19:26:54.920Z,6.10
2023-03-07T19:29:23.233Z,6.17
2023-03-07T19:31:52.069Z,6.16
2023-03-07T19:34:20.386Z,6.16
2023-03-07T19:36:49.122Z,6.12
2023-03-07T19:39:20.478Z,6.11
2023-03-07T19:41:50.140Z,6.11
2023-03-07T19:44:19.805Z,6.11
2023-03-07T19:46:48.882Z,6.07
2023-03-07T19:49:18.529Z,6.04
2023-03-07T19:51:46.836Z,6.01
2023-03-07T19:54:16.382Z,5.99
2023-03-07T19:56:45.619Z,5.88
2023-03-07T19:59:15.462Z,5.77
2023-03-07T20:01:45.285Z,5.69
2023-03-07T20:04:16.022Z,5.59
2023-03-07T20:06:45.497Z,5.59
2023-03-07T20:09:14.395Z,5.58
2023-03-07T20:11:43.872Z,5.56
2023-03-07T20:14:13.328Z,5.50
2023-03-07T20:16:42.065Z,5.53
2023-03-07T20:19:11.880Z,5.53
2023-03-07T20:21:42.892Z,5.54
2023-03-07T20:24:12.776Z,5.60
2023-03-07T20:26:41.796Z,5.61
2023-03-07T20:29:11.342Z,5.60
2023-03-07T20:31:40.794Z,5.46
2023-03-07T20:34:12.316Z,5.49
2023-03-07T20:36:40.772Z,5.48
2023-03-07T20:39:13.144Z,5.48
2023-03-07T20:41:42.336Z,5.36
2023-03-07T20:44:13.242Z,5.28
2023-03-07T20:46:41.954Z,5.36
2023-03-07T20:49:14.241Z,5.39
2023-03-07T20:51:43.635Z,5.38
2023-03-07T20:54:14.412Z,5.44
2023-03-07T20:56:43.642Z,5.46
2023-03-07T20:59:14.368Z,5.40
2023-03-07T21:01:43.195Z,5.43
2023-03-07T21:04:16.043Z,5.49
2023-03-07T21:06:46.280Z,5.47
2023-03-07T21:12:03.105Z,5.49
2023-03-07T21:14:31.982Z,5.40
2023-03-07T21:17:02.578Z,5.34
2023-03-07T21:19:33.226Z,5.43
2023-03-07T21:22:02.768Z,5.43
2023-03-07T21:24:31.139Z,5.47
2023-03-07T21:27:00.677Z,5.35
2023-03-07T21:29:30.092Z,5.28
2023-03-07T21:31:58.515Z,5.14
2023-03-07T21:34:27.887Z,4.94
2023-03-07T21:36:57.559Z,4.84
2023-03-07T21:39:27.752Z,4.80
2023-03-07T21:41:56.096Z,4.75
2023-03-07T21:44:24.903Z,4.71
2023-03-07T21:46:53.256Z,4.50
2023-03-07T21:49:22.635Z,4.50
2023-03-07T21:51:50.934Z,4.48
2023-03-07T21:54:21.389Z,4.42
2023-03-07T21:56:50.090Z,4.32
2023-03-07T21:59:18.428Z,4.36
2023-03-07T22:01:47.023Z,4.32
2023-03-07T22:04:15.965Z,4.19
2023-03-07T22:06:44.460Z,4.25
2023-03-07T22:09:13.782Z,4.21
2023-03-07T22:11:43.465Z,4.27
2023-03-07T22:14:12.214Z,4.28
2023-03-07T22:16:40.951Z,4.29
2023-03-07T22:19:09.814Z,4.36
2023-03-07T22:21:38.694Z,4.36
2023-03-07T22:24:07.105Z,4.38
2023-03-07T22:26:36.316Z,4.40
2023-03-07T22:29:06.244Z,4.39
2023-03-07T22:31:35.716Z,4.42
2023-03-07T22:34:04.073Z,4.49
2023-03-07T22:36:33.809Z,4.54
2023-03-07T22:39:02.192Z,4.60
2023-03-07T22:41:31.073Z,4.58
2023-03-07T22:43:59.434Z,4.62
2023-03-07T22:46:30.023Z,4.61
2023-03-07T22:48:58.826Z,4.68
2023-03-07T22:51:27.657Z,4.69
2023-03-07T22:53:56.815Z,4.70
2023-03-07T22:56:27.230Z,4.72
2023-03-07T22:58:55.994Z,4.69
2023-03-07T23:01:27.094Z,4.70
2023-03-07T23:03:58.718Z,4.69
2023-03-07T23:06:29.500Z,4.71
2023-03-07T23:09:00.954Z,4.71
2023-03-07T23:11:31.677Z,4.70
2023-03-07T23:14:01.208Z,4.67
2023-03-07T23:16:31.543Z,4.68
2023-03-07T23:19:02.118Z,4.65
2023-03-07T23:21:32.781Z,4.56
2023-03-07T23:24:04.498Z,4.71
2023-03-07T23:26:35.948Z,4.69
2023-03-07T23:29:05.882Z,4.68
2023-03-07T23:31:38.774Z,4.66
2023-03-07T23:34:13.428Z,4.67
2023-03-07T23:36:43.388Z,4.66
2023-03-07T23:39:12.224Z,4.62
2023-03-07T23:41:42.146Z,4.65
2023-03-07T23:44:12.051Z,4.62
2023-03-07T23:46:40.404Z,4.58
2023-03-07T23:49:11.271Z,4.61
2023-03-07T23:51:39.801Z,4.58
2023-03-07T23:54:09.302Z,4.53
2023-03-07T23:56:37.596Z,4.52
2023-03-07T23:59:07.047Z,4.54
